Time;durP1;ratioP1;P1;durP2;ratioP2;P2;SDS_P1;SDS_P2;PMS_P1;PMS_P2;Temp;Humidity;BMP_temperature;BMP_pressure;BME280_temperature;BME280_humidity;BME280_pressure;Samples;Min_cycle;Max_cycle;Signal;HPM_P1;HPM_P2
2023/03/31 00:01:32;;;;;;;10.10;6.15;;;;;;;9.50;43.53;98656.59;5018957;28;20129;-77
2023/03/31 00:04:03;;;;;;;8.15;5.90;;;;;;;9.41;43.91;98653.16;5018872;28;20445;-76
2023/03/31 00:06:37;;;;;;;11.15;6.22;;;;;;;9.52;43.98;98660.72;5003014;28;20560;-76
2023/03/31 00:09:14;;;;;;;10.35;5.82;;;;;;;9.87;44.04;98662.78;5019448;28;20056;-77
2023/03/31 00:11:42;;;;;;;9.23;6.18;;;;;;;9.58;43.74;98660.00;5052843;28;20136;-75
2023/03/31 00:14:08;;;;;;;7.55;5.47;;;;;;;9.29;43.82;98664.31;5008947;28;20045;-76
2023/03/31 00:16:35;;;;;;;12.60;5.70;;;;;;;9.38;43.92;98655.34;5023010;28;20449;-76
2023/03/31 00:19:01;;;;;;;8.50;5.97;;;;;;;9.24;43.82;98661.38;5039851;28;20056;-76
2023/03/31 00:21:28;;;;;;;11.30;5.72;;;;;;;9.43;44.11;98640.56;5023071;28;20104;-77
2023/03/31 00:23:57;;;;;;;9.98;6.07;;;;;;;9.53;43.99;98627.09;5056595;28;20041;-77
2023/03/31 00:26:24;;;;;;;10.18;6.18;;;;;;;9.30;44.08;98645.59;5023618;28;20445;-77
2023/03/31 00:28:51;;;;;;;9.50;5.97;;;;;;;9.38;44.23;98642.91;5056096;28;20097;-77
2023/03/31 00:31:18;;;;;;;7.10;6.10;;;;;;;9.31;44.16;98655.22;5038115;28;20047;-75
2023/03/31 00:33:45;;;;;;;9.88;6.13;;;;;;;9.03;44.16;98648.72;5038275;28;20048;-76
2023/03/31 00:36:11;;;;;;;9.32;6.55;;;;;;;8.91;44.04;98626.28;5005682;28;20048;-77
2023/03/31 00:38:39;;;;;;;10.60;6.03;;;;;;;8.98;44.27;98644.94;5004538;28;20044;-75
2023/03/31 00:41:07;;;;;;;8.30;6.10;;;;;;;8.96;44.10;98644.28;4987100;28;20114;-78
2023/03/31 00:43:36;;;;;;;11.27;6.18;;;;;;;9.41;44.31;98642.56;5034891;28;20128;-77
2023/03/31 00:46:16;;;;;;;12.55;6.25;;;;;;;9.59;44.04;98643.13;5018437;28;20059;-75
2023/03/31 00:48:50;;;;;;;9.52;5.90;;;;;;;9.66;43.88;98637.91;5018469;28;20509;-76
2023/03/31 00:51:18;;;;;;;7.22;5.88;;;;;;;9.26;43.93;98635.53;4985212;28;20055;-75
2023/03/31 00:53:45;;;;;;;7.57;5.80;;;;;;;9.27;44.42;98626.59;5018156;28;20109;-75
2023/03/31 00:56:13;;;;;;;8.23;5.97;;;;;;;9.14;44.56;98636.91;5002100;28;20550;-76
2023/03/31 00:58:42;;;;;;;7.63;5.40;;;;;;;9.06;44.56;98640.44;4985586;28;20480;-76
2023/03/31 01:01:13;;;;;;;8.50;6.00;;;;;;;9.03;44.54;98637.28;5018317;28;20514;-77
2023/03/31 01:03:41;;;;;;;7.15;5.53;;;;;;;8.79;44.51;98624.16;5018193;28;20460;-76
2023/03/31 01:06:09;;;;;;;7.17;5.37;;;;;;;8.49;44.54;98626.56;5017800;28;20158;-76
2023/03/31 01:08:37;;;;;;;7.63;5.57;;;;;;;8.50;45.14;98609.69;5001755;28;20548;-76
2023/03/31 01:11:09;;;;;;;7.43;5.90;;;;;;;8.56;45.33;98589.69;4985322;28;20064;-76
2023/03/31 01:13:38;;;;;;;7.73;5.70;;;;;;;8.46;45.29;98602.25;5017869;28;20041;-77
2023/03/31 01:16:07;;;;;;;6.47;5.50;;;;;;;8.21;45.39;98609.41;4958551;28;1303031;-77
2023/03/31 01:18:33;;;;;;;7.60;5.50;;;;;;;8.22;45.29;98612.88;4984725;28;20044;-76
2023/03/31 01:21:38;;;;;;;8.67;5.40;;;;;;;9.04;45.35;98609.84;5002518;28;20120;-76
2023/03/31 01:24:30;;;;;;;7.70;5.73;;;;;;;9.11;44.76;98611.59;5018595;28;20041;-77
2023/03/31 01:27:08;;;;;;;7.47;5.40;;;;;;;9.15;44.88;98612.91;5002322;28;20099;-77
2023/03/31 01:30:25;;;;;;;6.17;4.97;;;;;;;9.13;44.56;98600.84;5034873;28;20443;-77
2023/03/31 01:32:57;;;;;;;8.40;5.27;;;;;;;8.45;44.29;98596.16;5014252;28;20087;-77
2023/03/31 01:35:35;;;;;;;8.10;5.07;;;;;;;9.02;44.50;98595.94;5001930;28;20491;-76
2023/03/31 01:38:18;;;;;;;13.63;5.73;;;;;;;9.08;45.06;98596.06;5052080;28;20048;-76
2023/03/31 01:40:54;;;;;;;7.23;5.80;;;;;;;8.74;45.08;98586.78;5018136;28;20442;-76
2023/03/31 01:43:47;;;;;;;7.37;5.27;;;;;;;8.84;45.23;98590.06;5001681;28;20250;-76
2023/03/31 01:46:35;;;;;;;12.70;5.37;;;;;;;8.93;45.09;98573.13;5001918;28;20059;-75
2023/03/31 01:49:24;;;;;;;7.63;5.07;;;;;;;8.83;45.20;98589.22;4985544;28;20101;-75
2023/03/31 01:52:03;;;;;;;8.07;5.17;;;;;;;8.72;45.41;98591.44;4987124;28;20085;-75
2023/03/31 01:55:01;;;;;;;6.77;5.03;;;;;;;8.81;44.90;98593.88;5071494;28;20040;-75
2023/03/31 01:57:33;;;;;;;7.60;5.20;;;;;;;8.57;45.28;98586.88;4958473;28;20104;-76
2023/03/31 02:00:14;;;;;;;8.90;5.50;;;;;;;8.78;45.51;98585.47;4990699;28;20054;-75
2023/03/31 02:02:56;;;;;;;6.00;4.93;;;;;;;8.79;45.36;98580.00;4964207;28;20516;-75
2023/03/31 02:05:30;;;;;;;7.23;5.07;;;;;;;8.73;45.34;98577.19;4978066;28;20138;-75
2023/03/31 02:08:09;;;;;;;9.17;5.40;;;;;;;8.83;45.32;98580.44;4957743;28;20483;-76
2023/03/31 02:10:36;;;;;;;8.50;5.23;;;;;;;8.25;45.25;98570.25;5016460;28;20102;-75
2023/03/31 02:13:03;;;;;;;7.37;4.80;;;;;;;8.35;45.52;98577.00;5037513;28;20368;-74
2023/03/31 02:15:37;;;;;;;5.40;4.23;;;;;;;8.62;45.66;98574.94;5020714;28;20052;-75
2023/03/31 02:18:10;;;;;;;6.37;4.27;;;;;;;8.43;45.45;98579.63;5055300;28;20482;-75
2023/03/31 02:20:40;;;;;;;11.13;4.53;;;;;;;8.55;45.48;98575.63;5054819;28;20044;-75
2023/03/31 02:23:08;;;;;;;7.33;4.20;;;;;;;8.37;45.43;98577.66;5054974;28;20465;-75
2023/03/31 02:25:56;;;;;;;7.17;4.13;;;;;;;8.74;45.25;98594.72;5037812;28;20052;-75
2023/03/31 02:28:25;;;;;;;4.50;3.70;;;;;;;8.37;45.69;98590.06;5021739;28;20040;-75
2023/03/31 02:31:18;;;;;;;5.10;3.67;;;;;;;7.95;45.56;98586.81;5021332;28;20133;-75
2023/03/31 02:33:46;;;;;;;6.97;3.53;;;;;;;8.01;45.55;98596.72;5047882;28;20490;-75
2023/03/31 02:36:12;;;;;;;4.77;3.77;;;;;;;7.94;45.44;98606.28;5017870;28;20040;-75
2023/03/31 02:38:51;;;;;;;5.00;3.50;;;;;;;8.60;45.86;98604.22;5005218;28;20048;-76
2023/03/31 02:41:16;;;;;;;4.90;3.80;;;;;;;7.99;45.86;98607.47;5004419;28;20044;-74
2023/03/31 02:43:42;;;;;;;6.87;3.80;;;;;;;8.02;45.71;98601.00;5021945;28;20048;-75
2023/03/31 02:46:09;;;;;;;9.80;4.27;;;;;;;7.95;45.71;98598.19;5021597;28;20041;-76
2023/03/31 02:48:37;;;;;;;5.77;4.10;;;;;;;8.31;45.95;98596.03;5038834;28;20574;-76
2023/03/31 02:51:10;;;;;;;5.53;4.13;;;;;;;8.48;46.09;98597.63;5054939;28;20509;-76
2023/03/31 02:54:08;;;;;;;7.13;4.00;;;;;;;8.68;45.85;98598.91;5039659;28;20040;-76
2023/03/31 02:57:14;;;;;;;4.70;3.90;;;;;;;8.69;46.04;98608.47;5023146;28;20139;-75
2023/03/31 02:59:43;;;;;;;;;;;;;;;8.81;45.37;98615.03;5022458;28;20040;-75
2023/03/31 03:02:25;;;;;;;8.70;4.93;;;;;;;8.54;46.15;98612.84;5020236;28;19920;-79
2023/03/31 03:05:18;;;;;;;6.10;4.43;;;;;;;8.50;46.28;98608.88;5035598;28;20355;-79
2023/03/31 03:08:09;;;;;;;6.43;4.37;;;;;;;8.56;46.63;98594.97;5036918;28;20049;-78
2023/03/31 03:10:59;;;;;;;7.33;4.37;;;;;;;8.71;47.06;98587.13;5054315;28;20505;-76
2023/03/31 03:13:50;;;;;;;12.67;5.00;;;;;;;8.69;46.87;98586.50;4996684;28;20484;-76
2023/03/31 03:16:26;;;;;;;25.98;4.93;;;;;;;8.58;47.32;98572.63;5013899;28;20053;-78
2023/03/31 03:19:01;;;;;;;6.77;4.80;;;;;;;8.69;46.99;98560.03;4997363;28;20060;-76
2023/03/31 03:21:28;;;;;;;8.30;4.87;;;;;;;8.26;47.14;98535.69;4961225;28;20455;-73
2023/03/31 03:23:53;;;;;;;5.87;4.50;;;;;;;8.09;46.90;98547.28;4977439;28;20053;-75
2023/03/31 03:26:22;;;;;;;9.93;4.70;;;;;;;8.22;47.38;98538.81;4977314;28;20119;-75
2023/03/31 03:28:51;;;;;;;10.63;4.90;;;;;;;8.79;47.43;98535.00;4994009;28;20069;-73
2023/03/31 03:31:18;;;;;;;8.30;4.70;;;;;;;8.50;46.90;98525.03;4995464;28;20071;-74
2023/03/31 03:33:45;;;;;;;8.83;5.50;;;;;;;8.26;46.94;98530.41;4990348;28;20073;-70
2023/03/31 03:36:11;;;;;;;7.53;4.30;;;;;;;8.37;46.66;98550.38;4973803;28;20046;-76
2023/03/31 03:38:40;;;;;;;6.10;4.53;;;;;;;8.71;46.94;98547.41;4956750;28;20397;-79
2023/03/31 03:41:06;;;;;;;7.93;4.77;;;;;;;8.23;46.52;98533.41;4967864;28;20133;-74
2023/03/31 03:43:34;;;;;;;8.43;5.13;;;;;;;8.09;46.79;98534.06;4957874;28;20140;-77
2023/03/31 03:46:00;;;;;;;8.37;5.23;;;;;;;8.12;47.32;98530.25;4966146;28;20055;-77
2023/03/31 03:48:27;;;;;;;7.17;5.30;;;;;;;8.22;46.87;98530.88;4962613;28;20162;-77
2023/03/31 03:50:54;;;;;;;9.80;5.40;;;;;;;8.62;47.59;98530.78;4946739;28;20059;-79
2023/03/31 03:53:20;;;;;;;8.27;4.97;;;;;;;8.30;47.34;98533.56;4952761;28;20485;-77
2023/03/31 03:55:50;;;;;;;5.83;4.67;;;;;;;8.24;46.78;98523.66;4914148;29;20063;-77
2023/03/31 03:58:18;;;;;;;5.43;4.40;;;;;;;8.41;46.98;98498.78;4903279;29;20131;-78
2023/03/31 04:00:45;;;;;;;8.57;4.67;;;;;;;8.44;47.01;98516.97;4920430;29;20433;-79
2023/03/31 04:03:11;;;;;;;6.03;4.50;;;;;;;8.28;47.33;98517.84;4919803;29;20050;-77
2023/03/31 04:05:37;;;;;;;12.50;4.93;;;;;;;8.20;47.34;98517.00;4930348;29;20569;-75
2023/03/31 04:08:04;;;;;;;5.67;4.77;;;;;;;8.28;47.35;98524.94;4919929;29;20142;-67
2023/03/31 04:10:30;;;;;;;5.87;4.27;;;;;;;8.22;46.75;98510.59;4919726;29;20432;-68
2023/03/31 04:12:56;;;;;;;7.53;4.07;;;;;;;8.25;46.83;98517.34;4919889;29;20051;-69
2023/03/31 04:15:22;;;;;;;5.63;4.30;;;;;;;8.38;46.85;98507.88;4919609;29;20525;-69
2023/03/31 04:17:49;;;;;;;9.33;4.67;;;;;;;8.35;46.59;98502.09;4888780;29;20063;-69
2023/03/31 04:20:16;;;;;;;5.63;4.20;;;;;;;8.56;46.52;98505.81;4916967;29;20047;-69
2023/03/31 04:22:46;;;;;;;11.20;3.83;;;;;;;8.25;46.65;98498.84;4932446;29;20196;-68
2023/03/31 04:25:15;;;;;;;5.77;3.97;;;;;;;8.47;46.51;98488.31;4937444;29;20122;-68
2023/03/31 04:27:57;;;;;;;5.70;3.60;;;;;;;8.37;46.65;98486.88;4984616;28;20134;-67
2023/03/31 04:30:29;;;;;;;8.47;3.57;;;;;;;8.62;46.65;98504.31;4969432;28;20047;-68
2023/03/31 04:33:01;;;;;;;9.80;3.87;;;;;;;8.76;46.58;98492.97;4970651;28;20055;-67
2023/03/31 04:35:41;;;;;;;5.03;3.93;;;;;;;8.58;46.57;98492.41;4970438;28;20063;-67
2023/03/31 04:38:07;;;;;;;4.93;3.10;;;;;;;8.32;46.21;98489.22;4954600;28;20043;-68
2023/03/31 04:40:34;;;;;;;7.10;3.47;;;;;;;8.51;46.07;98499.41;4938532;29;20054;-67
2023/03/31 04:43:00;;;;;;;7.73;3.83;;;;;;;8.42;46.21;98508.38;4999297;28;20056;-68
2023/03/31 04:45:26;;;;;;;10.23;4.27;;;;;;;8.35;46.45;98515.31;4976720;28;20086;-68
2023/03/31 04:47:53;;;;;;;6.57;3.70;;;;;;;8.41;46.41;98520.75;4993693;28;20058;-69
2023/03/31 04:50:19;;;;;;;19.63;4.30;;;;;;;8.39;46.12;98521.94;4974467;28;20530;-68
2023/03/31 04:52:47;;;;;;;5.33;4.20;;;;;;;8.80;46.42;98512.81;4974047;28;20042;-68
2023/03/31 04:55:14;;;;;;;9.57;5.53;;;;;;;8.69;46.74;98518.47;4994535;28;20496;-68
2023/03/31 04:57:40;;;;;;;12.03;4.43;;;;;;;8.33;46.10;98515.50;5015772;28;20049;-68
2023/03/31 05:00:07;;;;;;;8.00;4.93;;;;;;;8.57;46.60;98515.41;4981597;28;20530;-68
2023/03/31 05:02:33;;;;;;;7.77;4.63;;;;;;;8.51;46.24;98512.63;4966995;28;20578;-68
2023/03/31 05:04:59;;;;;;;8.40;3.70;;;;;;;8.48;46.05;98507.69;4983320;28;20064;-68
2023/03/31 05:07:25;;;;;;;7.83;4.43;;;;;;;8.49;46.15;98517.25;4966814;28;20041;-68
2023/03/31 05:09:51;;;;;;;6.40;4.03;;;;;;;8.45;46.31;98526.53;4999468;28;20045;-68
2023/03/31 05:12:17;;;;;;;5.93;4.50;;;;;;;8.41;46.25;98520.75;4999213;28;20102;-68
2023/03/31 05:14:43;;;;;;;9.87;5.17;;;;;;;8.53;46.12;98519.38;4982712;28;20088;-68
2023/03/31 05:17:08;;;;;;;7.57;4.60;;;;;;;8.51;46.07;98500.22;5001653;28;20052;-68
2023/03/31 05:19:34;;;;;;;6.53;4.50;;;;;;;8.61;45.91;98497.34;5056039;28;20429;-68
2023/03/31 05:22:00;;;;;;;11.43;5.20;;;;;;;8.57;45.82;98494.25;5039560;28;20040;-68
2023/03/31 05:24:28;;;;;;;9.27;4.70;;;;;;;8.57;45.97;98501.34;5006607;28;20162;-68
2023/03/31 05:26:56;;;;;;;7.80;5.00;;;;;;;8.72;45.93;98496.97;5039259;28;20478;-68
2023/03/31 05:29:22;;;;;;;9.57;4.77;;;;;;;8.96;45.75;98504.78;5039826;28;20510;-68
2023/03/31 05:31:48;;;;;;;12.40;5.00;;;;;;;8.74;45.38;98470.31;5056121;28;20051;-68
2023/03/31 05:34:15;;;;;;;13.55;4.80;;;;;;;8.93;45.39;98469.88;5022906;28;20044;-68
2023/03/31 05:36:42;;;;;;;10.60;5.70;;;;;;;8.89;45.32;98471.25;5056110;28;20141;-68
2023/03/31 05:39:08;;;;;;;9.57;5.10;;;;;;;9.01;45.20;98470.63;5022924;28;20049;-68
2023/03/31 05:41:34;;;;;;;21.67;8.50;;;;;;;9.21;44.98;98474.44;5022533;28;20047;-68
2023/03/31 05:44:00;;;;;;;9.02;5.15;;;;;;;9.25;44.78;98469.63;5055649;28;20063;-68
2023/03/31 05:46:27;;;;;;;9.20;4.50;;;;;;;9.26;44.59;98469.44;5055794;28;20044;-68
2023/03/31 05:48:53;;;;;;;6.70;4.63;;;;;;;9.18;44.58;98464.22;5039293;28;20041;-68
2023/03/31 05:51:18;;;;;;;12.50;4.80;;;;;;;9.22;44.55;98473.47;5006419;28;20040;-67
2023/03/31 05:53:44;;;;;;;15.00;5.30;;;;;;;9.24;44.44;98470.66;5039041;28;20067;-68
2023/03/31 05:56:11;;;;;;;13.45;5.30;;;;;;;9.23;44.41;98461.88;5005961;28;20460;-67
2023/03/31 05:58:37;;;;;;;7.55;4.68;;;;;;;9.35;44.03;98473.69;5055442;28;20054;-68
2023/03/31 06:01:07;;;;;;;8.07;4.93;;;;;;;9.68;44.21;98468.91;5006087;28;20087;-68
2023/03/31 06:03:35;;;;;;;8.05;4.55;;;;;;;9.72;44.05;98467.53;5038586;28;20036;-68
2023/03/31 06:06:01;;;;;;;11.23;5.20;;;;;;;9.58;43.87;98473.66;5022214;28;20402;-68
2023/03/31 06:08:28;;;;;;;15.70;4.90;;;;;;;9.80;43.76;98457.69;5021950;28;20493;-68
2023/03/31 06:10:54;;;;;;;18.13;5.65;;;;;;;9.65;43.36;98453.38;5055495;28;20537;-68
2023/03/31 06:13:19;;;;;;;10.25;4.63;;;;;;;9.67;43.34;98449.53;5055252;28;20040;-68
2023/03/31 06:15:59;;;;;;;9.82;5.05;;;;;;;10.31;43.50;98439.22;5022054;28;20052;-68
2023/03/31 06:18:27;;;;;;;9.18;4.65;;;;;;;10.23;43.03;98472.81;5022537;28;20037;-68
2023/03/31 06:20:53;;;;;;;9.50;4.32;;;;;;;10.08;42.96;98474.66;5055432;28;20044;-68
2023/03/31 06:23:20;;;;;;;8.88;4.95;;;;;;;10.05;42.70;98477.66;5021849;28;20478;-68
2023/03/31 06:25:46;;;;;;;14.65;5.20;;;;;;;9.90;42.45;98474.13;5022079;28;20044;-68
2023/03/31 06:28:11;;;;;;;10.93;4.90;;;;;;;9.92;42.65;98474.78;5021340;28;20131;-68
2023/03/31 06:30:37;;;;;;;9.25;5.00;;;;;;;10.02;42.59;98467.38;5005429;28;20118;-68
2023/03/31 06:33:04;;;;;;;7.25;4.93;;;;;;;10.30;42.66;98466.78;5038135;28;20044;-68
2023/03/31 06:35:29;;;;;;;9.10;5.10;;;;;;;10.13;42.41;98474.91;5054833;28;20113;-68
2023/03/31 06:37:56;;;;;;;11.98;5.15;;;;;;;10.18;42.09;98466.41;5021877;28;20041;-68
2023/03/31 06:40:22;;;;;;;9.02;5.45;;;;;;;10.27;41.97;98469.78;5055009;28;20048;-68
2023/03/31 06:42:48;;;;;;;11.98;5.10;;;;;;;10.23;41.84;98479.94;5038168;28;20482;-68
2023/03/31 06:45:15;;;;;;;12.18;5.15;;;;;;;10.31;41.80;98473.72;5022335;28;20044;-68
2023/03/31 06:47:41;;;;;;;12.20;4.90;;;;;;;10.40;41.78;98465.47;5005310;28;20551;-68
2023/03/31 06:50:08;;;;;;;10.98;4.78;;;;;;;10.81;41.64;98471.88;5021201;28;20048;-68
2023/03/31 06:52:37;;;;;;;10.02;5.13;;;;;;;10.55;41.61;98460.16;5005068;28;20040;-68
2023/03/31 06:55:04;;;;;;;7.35;5.25;;;;;;;10.45;41.74;98467.56;5005299;28;20040;-68
2023/03/31 06:57:32;;;;;;;8.25;4.95;;;;;;;10.21;41.90;98456.25;5021314;28;20132;-68
2023/03/31 06:59:58;;;;;;;15.27;5.30;;;;;;;10.31;41.99;98455.13;5021825;28;20055;-68
2023/03/31 07:02:24;;;;;;;8.98;5.22;;;;;;;10.19;42.07;98457.44;5038019;28;20086;-68
2023/03/31 07:04:50;;;;;;;12.68;5.13;;;;;;;10.15;42.21;98440.25;5021306;28;20478;-68
2023/03/31 07:07:16;;;;;;;11.32;5.45;;;;;;;10.33;42.02;98448.66;5021217;28;20048;-68
2023/03/31 07:09:41;;;;;;;11.48;4.90;;;;;;;10.45;42.05;98449.81;5038015;28;20044;-68
2023/03/31 07:12:09;;;;;;;7.25;5.00;;;;;;;10.64;41.54;98448.41;5004842;28;20051;-68
2023/03/31 07:14:35;;;;;;;19.08;6.10;;;;;;;10.88;41.33;98451.53;5004978;28;20532;-70
2023/03/31 07:17:02;;;;;;;11.00;6.03;;;;;;;10.86;40.96;98448.25;5004959;28;20142;-68
2023/03/31 07:19:28;;;;;;;9.38;5.40;;;;;;;10.83;41.12;98442.47;5054401;28;20045;-68
2023/03/31 07:21:55;;;;;;;9.35;5.30;;;;;;;10.98;40.85;98444.06;5037762;28;20059;-68
2023/03/31 07:24:21;;;;;;;7.82;4.95;;;;;;;11.02;40.53;98455.97;5004861;28;20045;-68
2023/03/31 07:26:47;;;;;;;9.25;5.28;;;;;;;11.00;40.68;98451.84;5004777;28;20044;-68
2023/03/31 07:29:12;;;;;;;17.85;5.25;;;;;;;10.97;40.72;98447.75;5021097;28;20055;-68
2023/03/31 07:31:38;;;;;;;12.52;5.10;;;;;;;10.95;40.58;98444.44;5021008;28;20052;-67
2023/03/31 07:34:04;;;;;;;10.40;4.60;;;;;;;11.07;40.83;98445.59;5020828;28;20050;-67
2023/03/31 07:36:30;;;;;;;24.67;6.20;;;;;;;11.10;40.46;98442.53;5037721;28;20375;-68
2023/03/31 07:38:57;;;;;;;17.55;5.28;;;;;;;11.25;40.25;98443.31;5054398;28;20036;-68
2023/03/31 07:41:23;;;;;;;15.02;5.13;;;;;;;11.25;40.50;98448.63;5006673;28;20054;-68
2023/03/31 07:43:50;;;;;;;16.15;4.95;;;;;;;11.22;40.44;98445.53;5041550;28;20036;-68
2023/03/31 07:46:22;;;;;;;13.23;4.82;;;;;;;11.76;40.30;98443.97;5058151;28;20044;-67
2023/03/31 07:48:48;;;;;;;11.95;4.68;;;;;;;11.57;40.00;98439.28;5024763;28;20072;-68
2023/03/31 07:51:15;;;;;;;16.92;5.13;;;;;;;11.58;39.85;98443.56;5024875;28;20114;-68
2023/03/31 07:53:41;;;;;;;16.25;4.95;;;;;;;11.42;39.85;98449.97;5057740;28;20048;-67
2023/03/31 07:56:07;;;;;;;15.95;4.80;;;;;;;11.39;39.81;98441.59;5041255;28;20076;-68
2023/03/31 07:58:33;;;;;;;13.10;5.35;;;;;;;11.44;40.00;98450.63;5008240;28;20529;-68
2023/03/31 08:00:59;;;;;;;12.57;4.85;;;;;;;11.42;39.91;98444.66;5008394;28;20100;-68
2023/03/31 08:03:26;;;;;;;18.02;5.80;;;;;;;11.56;39.54;98434.97;5057675;28;20131;-68
2023/03/31 08:05:52;;;;;;;8.93;5.60;;;;;;;11.61;39.70;98428.06;5041012;28;20561;-67
2023/03/31 08:08:18;;;;;;;14.88;5.22;;;;;;;11.56;39.63;98427.81;5024575;28;20056;-67
2023/03/31 08:10:44;;;;;;;14.38;4.88;;;;;;;11.57;39.45;98423.31;5007921;28;20040;-67
2023/03/31 08:13:10;;;;;;;23.30;5.57;;;;;;;11.44;39.83;98432.00;5007979;28;20071;-67
2023/03/31 08:15:36;;;;;;;15.98;5.55;;;;;;;11.55;39.82;98420.84;5040795;28;20475;-68
2023/03/31 08:18:05;;;;;;;13.75;5.63;;;;;;;11.84;39.80;98415.34;5008104;28;20079;-68
2023/03/31 08:20:31;;;;;;;18.13;5.75;;;;;;;11.46;40.00;98395.44;5024452;28;20044;-67
2023/03/31 08:22:57;;;;;;;14.00;5.68;;;;;;;11.36;39.92;98402.09;5024090;28;20052;-67
2023/03/31 08:25:23;;;;;;;14.38;6.47;;;;;;;11.47;40.00;98398.91;5007852;28;20049;-68
2023/03/31 08:27:51;;;;;;;9.63;5.40;;;;;;;11.54;40.05;98382.00;5007797;28;20048;-68
2023/03/31 08:30:18;;;;;;;13.88;5.97;;;;;;;11.89;39.92;98389.00;5007952;28;20131;-68
2023/03/31 08:32:45;;;;;;;13.93;6.32;;;;;;;11.74;39.59;98392.78;5024005;28;20478;-68
2023/03/31 08:35:11;;;;;;;17.92;6.80;;;;;;;11.73;39.36;98391.16;5023906;28;20450;-67
2023/03/31 08:37:37;;;;;;;16.58;6.93;;;;;;;11.88;39.62;98397.97;5040504;28;20094;-68
2023/03/31 08:40:10;;;;;;;17.70;7.10;;;;;;;12.21;39.55;98392.81;5024158;28;20390;-68
2023/03/31 08:42:43;;;;;;;16.27;6.80;;;;;;;12.29;39.39;98387.31;5007798;28;20113;-68
2023/03/31 08:45:21;;;;;;;14.65;6.55;;;;;;;12.19;39.55;98381.56;5023788;28;20055;-68
2023/03/31 08:47:51;;;;;;;26.35;7.38;;;;;;;11.99;39.55;98375.34;5023497;28;20040;-68
2023/03/31 08:50:20;;;;;;;14.60;7.22;;;;;;;11.85;40.15;98362.97;5056910;28;20044;-67
2023/03/31 08:53:04;;;;;;;12.00;6.93;;;;;;;12.02;40.20;98374.09;5006987;28;20142;-68
2023/03/31 08:55:39;;;;;;;11.82;7.00;;;;;;;11.86;40.30;98370.75;5040311;28;20367;-68
2023/03/31 08:58:15;;;;;;;14.30;7.03;;;;;;;11.94;40.14;98372.44;5040299;28;20044;-68
2023/03/31 09:01:12;;;;;;;14.20;7.35;;;;;;;11.99;40.19;98361.19;5056513;28;20067;-68
2023/03/31 09:04:06;;;;;;;14.75;6.97;;;;;;;11.78;40.54;98354.97;5039652;28;20491;-68
2023/03/31 09:06:38;;;;;;;13.93;7.57;;;;;;;11.60;40.96;98364.44;5039953;28;20040;-68
2023/03/31 09:09:09;;;;;;;12.10;7.20;;;;;;;11.49;40.85;98365.81;5040066;28;20058;-68
2023/03/31 09:11:35;;;;;;;;;;;;;;;11.83;40.79;98355.19;5024038;28;20055;-68
2023/03/31 09:14:15;;;;;;;23.98;7.43;;;;;;;11.54;41.29;98359.91;5007027;28;19924;-68
2023/03/31 09:16:59;;;;;;;18.42;7.28;;;;;;;11.46;41.50;98360.03;5023216;28;20117;-68
2023/03/31 09:19:57;;;;;;;13.43;7.47;;;;;;;11.57;41.68;98354.19;5039631;28;20037;-68
2023/03/31 09:22:44;;;;;;;16.08;8.10;;;;;;;11.60;41.47;98348.47;5056105;28;20158;-68
2023/03/31 09:25:15;;;;;;;16.17;7.22;;;;;;;11.43;41.41;98345.31;5055423;28;20123;-68
2023/03/31 09:27:42;;;;;;;17.15;8.02;;;;;;;11.15;41.49;98341.00;5006678;28;20127;-67
2023/03/31 09:30:41;;;;;;;19.45;8.55;;;;;;;11.47;41.55;98319.97;5056153;28;20072;-68
2023/03/31 09:33:16;;;;;;;15.80;7.60;;;;;;;11.72;41.39;98323.00;5020000;28;20044;-68
2023/03/31 09:35:42;;;;;;;15.27;7.28;;;;;;;11.27;41.03;98339.47;5056003;28;20064;-68
2023/03/31 09:38:10;;;;;;;12.85;7.50;;;;;;;11.73;40.77;98329.97;5022917;28;20105;-68
2023/03/31 09:40:36;;;;;;;19.98;8.07;;;;;;;11.41;40.57;98325.25;5039290;28;20394;-68
2023/03/31 09:43:07;;;;;;;19.70;6.68;;;;;;;11.82;40.79;98318.16;5022754;28;20055;-68
2023/03/31 09:45:34;;;;;;;13.23;6.78;;;;;;;11.40;40.87;98315.63;5006675;28;20072;-68
2023/03/31 09:48:06;;;;;;;14.85;6.43;;;;;;;11.81;40.75;98319.16;5039167;28;20051;-68
2023/03/31 09:50:36;;;;;;;10.80;6.38;;;;;;;11.86;41.04;98322.06;5022536;28;20206;-68
2023/03/31 09:53:04;;;;;;;19.20;7.40;;;;;;;11.84;40.89;98318.75;5022303;28;20520;-68
2023/03/31 09:55:43;;;;;;;16.95;6.70;;;;;;;11.97;40.80;98312.69;5055404;28;20418;-68
2023/03/31 09:58:15;;;;;;;17.15;6.68;;;;;;;11.93;41.05;98312.28;5022434;28;20051;-68
2023/03/31 10:00:56;;;;;;;13.32;7.13;;;;;;;11.61;41.09;98305.72;5055398;28;20121;-68
2023/03/31 10:03:22;;;;;;;23.48;6.95;;;;;;;11.47;41.14;98312.00;5054713;28;20629;-68
2023/03/31 10:05:50;;;;;;;25.70;6.95;;;;;;;11.64;41.54;98300.06;5022341;28;20045;-68
2023/03/31 10:08:16;;;;;;;19.00;7.25;;;;;;;11.24;41.14;98303.47;5022144;28;20127;-68
2023/03/31 10:11:05;;;;;;;12.02;6.07;;;;;;;11.76;41.38;98308.31;5021686;28;20194;-67
2023/03/31 10:13:39;;;;;;;16.48;6.65;;;;;;;11.57;42.10;98303.66;5044827;28;20059;-67
2023/03/31 10:16:11;;;;;;;18.80;6.80;;;;;;;11.10;41.95;98308.91;5072237;28;20048;-67
2023/03/31 10:18:39;;;;;;;18.92;6.57;;;;;;;11.21;42.47;98316.34;5055019;28;20040;-69
2023/03/31 10:21:13;;;;;;;21.73;6.93;;;;;;;11.09;42.42;98309.88;5055708;28;20114;-68
2023/03/31 10:23:45;;;;;;;17.58;7.47;;;;;;;11.24;42.85;98308.78;4978432;28;20082;-69
2023/03/31 10:26:15;;;;;;;17.63;7.03;;;;;;;11.06;43.17;98310.28;4951843;28;20060;-67
2023/03/31 10:28:40;;;;;;;16.25;6.38;;;;;;;10.76;43.23;98300.84;4974949;28;20108;-67
2023/03/31 10:31:07;;;;;;;18.27;6.70;;;;;;;10.81;43.50;98301.09;4974903;28;20049;-66
2023/03/31 10:33:40;;;;;;;14.32;6.75;;;;;;;11.29;44.17;98286.94;4951938;28;20511;-68
2023/03/31 10:36:11;;;;;;;15.48;7.45;;;;;;;11.17;44.87;98283.19;4951715;28;20393;-66
2023/03/31 10:38:41;;;;;;;16.08;7.38;;;;;;;11.08;45.12;98285.19;4977930;28;20088;-65
2023/03/31 10:41:07;;;;;;;12.35;6.50;;;;;;;10.88;44.97;98278.06;4958760;28;20042;-66
2023/03/31 10:43:33;;;;;;;14.50;6.22;;;;;;;10.88;45.07;98262.97;4959915;28;20108;-67
2023/03/31 10:46:00;;;;;;;17.17;6.82;;;;;;;11.05;45.22;98277.59;4974412;28;20102;-67
2023/03/31 10:48:27;;;;;;;13.57;6.57;;;;;;;10.90;45.33;98270.75;4982741;28;20061;-67
2023/03/31 10:50:58;;;;;;;13.25;7.00;;;;;;;11.33;46.11;98258.97;4968053;28;20034;-67
2023/03/31 10:53:24;;;;;;;15.90;6.60;;;;;;;10.85;46.07;98254.56;4974959;28;20535;-67
2023/03/31 10:56:01;;;;;;;11.77;6.15;;;;;;;11.33;46.52;98251.00;5012956;28;20049;-67
2023/03/31 10:58:42;;;;;;;12.85;7.18;;;;;;;11.47;46.56;98242.06;5049502;28;20505;-67
2023/03/31 11:01:59;;;;;;;17.48;7.28;;;;;;;11.59;46.71;98243.16;5066825;28;20044;-67
2023/03/31 11:04:34;;;;;;;8.55;6.28;;;;;;;11.31;47.08;98234.41;4953509;28;20050;-66
2023/03/31 11:07:12;;;;;;;9.93;6.03;;;;;;;11.43;46.92;98238.16;4934737;28;20042;-67
2023/03/31 11:10:08;;;;;;;10.13;6.30;;;;;;;11.58;47.26;98228.19;4938009;28;20061;-67
2023/03/31 11:13:10;;;;;;;14.00;6.38;;;;;;;11.56;47.00;98224.94;4965171;28;20517;-66
2023/03/31 11:15:46;;;;;;;12.23;5.75;;;;;;;11.40;47.18;98220.78;5014109;28;20080;-67
2023/03/31 11:18:23;;;;;;;14.98;6.40;;;;;;;10.77;47.29;98220.16;5038241;28;20049;-66
2023/03/31 11:20:58;;;;;;;15.80;6.43;;;;;;;11.32;47.37;98228.91;5005470;28;20049;-67
2023/03/31 11:23:56;;;;;;;13.07;6.32;;;;;;;11.47;47.21;98220.81;5037452;28;20388;-68
2023/03/31 11:26:45;;;;;;;11.90;6.53;;;;;;;11.52;47.23;98221.00;4947174;28;20051;-65
2023/03/31 11:29:30;;;;;;;13.43;6.28;;;;;;;11.55;47.15;98229.41;4943267;28;20477;-68
2023/03/31 11:32:14;;;;;;;12.05;6.82;;;;;;;11.44;47.47;98221.19;4940090;29;20174;-67
2023/03/31 11:35:22;;;;;;;15.82;6.40;;;;;;;11.52;47.02;98219.19;4941075;28;20039;-68
2023/03/31 11:38:10;;;;;;;9.80;6.35;;;;;;;11.63;46.79;98212.50;5008370;28;20774;-67
2023/03/31 11:40:44;;;;;;;13.90;6.93;;;;;;;11.38;47.07;98214.81;5021495;28;20103;-67
2023/03/31 11:43:35;;;;;;;15.70;6.60;;;;;;;11.66;46.79;98209.44;5021503;28;20509;-67
2023/03/31 11:46:12;;;;;;;9.88;6.20;;;;;;;11.50;47.02;98205.25;5015015;28;20041;-68
2023/03/31 11:49:14;;;;;;;12.90;6.25;;;;;;;11.57;47.01;98208.78;5018865;28;20072;-67
2023/03/31 11:51:47;;;;;;;11.20;6.60;;;;;;;11.49;47.19;98202.78;4982186;28;20048;-68
2023/03/31 11:54:20;;;;;;;12.07;6.80;;;;;;;11.35;47.81;98207.25;5002799;28;20135;-67
2023/03/31 11:56:46;;;;;;;12.63;6.88;;;;;;;10.88;47.31;98203.69;5004384;28;20049;-67